sensor_id;sensor_type;location;lat;lon;timestamp;P1;durP1;ratioP1;P2;durP2;ratioP2
17987;SDS011;9119;50.932;5.342;2022-07-24T00:01:25;216.87;;;133.17;;
17987;SDS011;9119;50.932;5.342;2022-07-24T00:03:51;56.80;;;35.07;;
17987;SDS011;9119;50.932;5.342;2022-07-24T00:06:17;104.50;;;61.53;;
17987;SDS011;9119;50.932;5.342;2022-07-24T00:08:42;88.50;;;51.70;;
17987;SDS011;9119;50.932;5.342;2022-07-24T00:11:08;34.13;;;21.27;;
17987;SDS011;9119;50.932;5.342;2022-07-24T00:13:34;41.27;;;23.47;;
17987;SDS011;9119;50.932;5.342;2022-07-24T00:15:59;136.63;;;79.27;;
17987;SDS011;9119;50.932;5.342;2022-07-24T00:18:25;48.77;;;29.50;;
17987;SDS011;9119;50.932;5.342;2022-07-24T00:20:51;177.27;;;103.13;;
17987;SDS011;9119;50.932;5.342;2022-07-24T00:23:16;56.20;;;33.83;;
17987;SDS011;9119;50.932;5.342;2022-07-24T00:25:42;104.43;;;58.67;;
17987;SDS011;9119;50.932;5.342;2022-07-24T00:28:08;85.13;;;49.37;;
17987;SDS011;9119;50.932;5.342;2022-07-24T00:30:33;22.37;;;13.37;;
17987;SDS011;9119;50.932;5.342;2022-07-24T00:32:59;14.50;;;8.80;;
17987;SDS011;9119;50.932;5.342;2022-07-24T00:35:25;17.00;;;9.60;;
17987;SDS011;9119;50.932;5.342;2022-07-24T00:37:50;21.17;;;12.67;;
17987;SDS011;9119;50.932;5.342;2022-07-24T00:40:16;48.60;;;28.83;;
17987;SDS011;9119;50.932;5.342;2022-07-24T00:42:42;125.67;;;76.27;;
17987;SDS011;9119;50.932;5.342;2022-07-24T00:45:08;108.97;;;62.87;;
17987;SDS011;9119;50.932;5.342;2022-07-24T00:47:35;26.87;;;15.00;;
17987;SDS011;9119;50.932;5.342;2022-07-24T00:50:00;35.73;;;21.60;;
17987;SDS011;9119;50.932;5.342;2022-07-24T00:52:28;21.90;;;12.13;;
17987;SDS011;9119;50.932;5.342;2022-07-24T00:54:54;23.70;;;14.90;;
17987;SDS011;9119;50.932;5.342;2022-07-24T00:57:20;24.10;;;12.50;;
17987;SDS011;9119;50.932;5.342;2022-07-24T00:59:46;40.03;;;21.87;;
17987;SDS011;9119;50.932;5.342;2022-07-24T01:02:12;184.40;;;100.97;;
17987;SDS011;9119;50.932;5.342;2022-07-24T01:04:38;75.20;;;45.57;;
17987;SDS011;9119;50.932;5.342;2022-07-24T01:07:05;32.60;;;18.73;;
17987;SDS011;9119;50.932;5.342;2022-07-24T01:09:32;25.47;;;16.50;;
17987;SDS011;9119;50.932;5.342;2022-07-24T01:11:58;41.50;;;25.70;;
17987;SDS011;9119;50.932;5.342;2022-07-24T01:14:24;110.93;;;60.30;;
17987;SDS011;9119;50.932;5.342;2022-07-24T01:16:50;50.57;;;28.37;;
17987;SDS011;9119;50.932;5.342;2022-07-24T01:19:16;29.57;;;17.40;;
17987;SDS011;9119;50.932;5.342;2022-07-24T01:21:49;85.27;;;50.13;;
17987;SDS011;9119;50.932;5.342;2022-07-24T01:24:16;88.67;;;52.03;;
17987;SDS011;9119;50.932;5.342;2022-07-24T01:26:42;34.13;;;17.30;;
17987;SDS011;9119;50.932;5.342;2022-07-24T01:29:08;30.57;;;18.87;;
17987;SDS011;9119;50.932;5.342;2022-07-24T01:31:34;47.90;;;27.03;;
17987;SDS011;9119;50.932;5.342;2022-07-24T01:34:00;19.77;;;13.20;;
17987;SDS011;9119;50.932;5.342;2022-07-24T01:36:25;24.50;;;15.30;;
17987;SDS011;9119;50.932;5.342;2022-07-24T01:38:51;30.20;;;18.40;;
17987;SDS011;9119;50.932;5.342;2022-07-24T01:41:17;75.20;;;45.63;;
17987;SDS011;9119;50.932;5.342;2022-07-24T01:43:42;13.73;;;9.90;;
17987;SDS011;9119;50.932;5.342;2022-07-24T01:46:08;19.90;;;12.07;;
17987;SDS011;9119;50.932;5.342;2022-07-24T01:48:34;14.50;;;9.67;;
17987;SDS011;9119;50.932;5.342;2022-07-24T01:51:00;35.93;;;21.63;;
17987;SDS011;9119;50.932;5.342;2022-07-24T01:53:26;17.50;;;9.63;;
17987;SDS011;9119;50.932;5.342;2022-07-24T01:55:52;14.50;;;9.03;;
17987;SDS011;9119;50.932;5.342;2022-07-24T01:58:19;47.30;;;26.60;;
17987;SDS011;9119;50.932;5.342;2022-07-24T02:00:44;19.63;;;10.87;;
17987;SDS011;9119;50.932;5.342;2022-07-24T02:03:11;17.60;;;9.93;;
17987;SDS011;9119;50.932;5.342;2022-07-24T02:05:36;13.20;;;8.53;;
17987;SDS011;9119;50.932;5.342;2022-07-24T02:08:02;14.50;;;9.43;;
17987;SDS011;9119;50.932;5.342;2022-07-24T02:10:28;22.00;;;11.50;;
17987;SDS011;9119;50.932;5.342;2022-07-24T02:12:54;19.97;;;10.37;;
17987;SDS011;9119;50.932;5.342;2022-07-24T02:15:20;26.07;;;11.20;;
17987;SDS011;9119;50.932;5.342;2022-07-24T02:17:47;19.80;;;9.73;;
17987;SDS011;9119;50.932;5.342;2022-07-24T02:20:14;18.50;;;10.03;;
17987;SDS011;9119;50.932;5.342;2022-07-24T02:22:40;15.23;;;9.20;;
17987;SDS011;9119;50.932;5.342;2022-07-24T02:25:06;17.50;;;10.67;;
17987;SDS011;9119;50.932;5.342;2022-07-24T02:27:32;21.20;;;10.67;;
17987;SDS011;9119;50.932;5.342;2022-07-24T02:29:58;23.27;;;11.37;;
17987;SDS011;9119;50.932;5.342;2022-07-24T02:32:23;19.17;;;12.30;;
17987;SDS011;9119;50.932;5.342;2022-07-24T02:34:49;29.90;;;13.80;;
17987;SDS011;9119;50.932;5.342;2022-07-24T02:37:16;21.80;;;12.97;;
17987;SDS011;9119;50.932;5.342;2022-07-24T02:39:42;24.33;;;13.07;;
17987;SDS011;9119;50.932;5.342;2022-07-24T02:42:07;21.63;;;13.90;;
17987;SDS011;9119;50.932;5.342;2022-07-24T02:44:33;29.53;;;15.67;;
17987;SDS011;9119;50.932;5.342;2022-07-24T02:46:58;29.90;;;16.20;;
17987;SDS011;9119;50.932;5.342;2022-07-24T02:49:24;23.23;;;15.43;;
17987;SDS011;9119;50.932;5.342;2022-07-24T02:51:50;31.67;;;16.27;;
17987;SDS011;9119;50.932;5.342;2022-07-24T02:54:15;35.90;;;17.37;;
17987;SDS011;9119;50.932;5.342;2022-07-24T02:56:42;29.53;;;17.73;;
17987;SDS011;9119;50.932;5.342;2022-07-24T02:59:08;26.67;;;16.50;;
17987;SDS011;9119;50.932;5.342;2022-07-24T03:01:34;31.27;;;17.97;;
17987;SDS011;9119;50.932;5.342;2022-07-24T03:03:59;28.93;;;16.27;;
17987;SDS011;9119;50.932;5.342;2022-07-24T03:06:25;25.63;;;16.13;;
17987;SDS011;9119;50.932;5.342;2022-07-24T03:08:51;30.50;;;17.40;;
17987;SDS011;9119;50.932;5.342;2022-07-24T03:11:16;30.20;;;16.23;;
17987;SDS011;9119;50.932;5.342;2022-07-24T03:13:42;33.23;;;17.57;;
17987;SDS011;9119;50.932;5.342;2022-07-24T03:16:07;30.03;;;18.03;;
17987;SDS011;9119;50.932;5.342;2022-07-24T03:18:33;26.10;;;16.43;;
17987;SDS011;9119;50.932;5.342;2022-07-24T03:20:59;34.00;;;17.13;;
17987;SDS011;9119;50.932;5.342;2022-07-24T03:23:24;28.37;;;16.40;;
17987;SDS011;9119;50.932;5.342;2022-07-24T03:25:50;30.20;;;18.40;;
17987;SDS011;9119;50.932;5.342;2022-07-24T03:28:17;34.40;;;15.77;;
17987;SDS011;9119;50.932;5.342;2022-07-24T03:30:43;29.17;;;17.23;;
17987;SDS011;9119;50.932;5.342;2022-07-24T03:33:09;28.30;;;15.97;;
17987;SDS011;9119;50.932;5.342;2022-07-24T03:35:34;29.23;;;15.90;;
17987;SDS011;9119;50.932;5.342;2022-07-24T03:38:00;28.80;;;16.03;;
17987;SDS011;9119;50.932;5.342;2022-07-24T03:40:26;31.03;;;17.40;;
17987;SDS011;9119;50.932;5.342;2022-07-24T03:42:51;27.13;;;15.83;;
17987;SDS011;9119;50.932;5.342;2022-07-24T03:45:17;37.07;;;18.47;;
17987;SDS011;9119;50.932;5.342;2022-07-24T03:47:42;34.27;;;19.20;;
17987;SDS011;9119;50.932;5.342;2022-07-24T03:50:08;32.17;;;18.37;;
17987;SDS011;9119;50.932;5.342;2022-07-24T03:52:34;34.97;;;20.53;;
17987;SDS011;9119;50.932;5.342;2022-07-24T03:54:59;32.53;;;20.63;;
17987;SDS011;9119;50.932;5.342;2022-07-24T03:57:25;36.80;;;19.93;;
17987;SDS011;9119;50.932;5.342;2022-07-24T03:59:51;35.67;;;20.20;;
17987;SDS011;9119;50.932;5.342;2022-07-24T04:02:17;35.17;;;20.33;;
17987;SDS011;9119;50.932;5.342;2022-07-24T04:04:43;36.13;;;21.17;;
17987;SDS011;9119;50.932;5.342;2022-07-24T04:07:08;43.23;;;23.73;;
17987;SDS011;9119;50.932;5.342;2022-07-24T04:09:34;38.50;;;23.10;;
17987;SDS011;9119;50.932;5.342;2022-07-24T04:12:00;43.57;;;23.57;;
17987;SDS011;9119;50.932;5.342;2022-07-24T04:14:25;40.17;;;23.43;;
17987;SDS011;9119;50.932;5.342;2022-07-24T04:16:51;47.07;;;24.40;;
17987;SDS011;9119;50.932;5.342;2022-07-24T04:19:17;47.50;;;25.13;;
17987;SDS011;9119;50.932;5.342;2022-07-24T04:21:43;37.83;;;24.40;;
17987;SDS011;9119;50.932;5.342;2022-07-24T04:24:08;41.40;;;25.53;;
17987;SDS011;9119;50.932;5.342;2022-07-24T04:26:34;45.67;;;26.50;;
17987;SDS011;9119;50.932;5.342;2022-07-24T04:29:00;44.47;;;26.30;;
17987;SDS011;9119;50.932;5.342;2022-07-24T04:31:25;45.20;;;26.90;;
17987;SDS011;9119;50.932;5.342;2022-07-24T04:33:51;43.73;;;26.97;;
17987;SDS011;9119;50.932;5.342;2022-07-24T04:36:16;44.73;;;26.93;;
17987;SDS011;9119;50.932;5.342;2022-07-24T04:38:42;43.40;;;27.03;;
17987;SDS011;9119;50.932;5.342;2022-07-24T04:41:08;40.23;;;25.90;;
17987;SDS011;9119;50.932;5.342;2022-07-24T04:43:33;46.43;;;27.67;;
17987;SDS011;9119;50.932;5.342;2022-07-24T04:46:00;48.77;;;27.73;;
17987;SDS011;9119;50.932;5.342;2022-07-24T04:48:26;45.70;;;28.23;;
17987;SDS011;9119;50.932;5.342;2022-07-24T04:50:51;43.87;;;27.97;;
17987;SDS011;9119;50.932;5.342;2022-07-24T04:53:17;50.80;;;27.83;;
17987;SDS011;9119;50.932;5.342;2022-07-24T04:55:43;50.63;;;28.97;;
17987;SDS011;9119;50.932;5.342;2022-07-24T04:58:08;52.90;;;29.37;;
17987;SDS011;9119;50.932;5.342;2022-07-24T05:00:34;49.07;;;29.87;;
17987;SDS011;9119;50.932;5.342;2022-07-24T05:03:00;52.80;;;29.87;;
17987;SDS011;9119;50.932;5.342;2022-07-24T05:05:25;54.43;;;30.43;;
17987;SDS011;9119;50.932;5.342;2022-07-24T05:07:51;48.73;;;30.27;;
17987;SDS011;9119;50.932;5.342;2022-07-24T05:10:17;52.00;;;30.63;;
17987;SDS011;9119;50.932;5.342;2022-07-24T05:12:42;52.07;;;29.00;;
17987;SDS011;9119;50.932;5.342;2022-07-24T05:15:09;53.40;;;30.27;;
17987;SDS011;9119;50.932;5.342;2022-07-24T05:17:35;48.97;;;29.60;;
17987;SDS011;9119;50.932;5.342;2022-07-24T05:20:02;53.13;;;30.53;;
17987;SDS011;9119;50.932;5.342;2022-07-24T05:22:29;53.43;;;31.73;;
17987;SDS011;9119;50.932;5.342;2022-07-24T05:24:55;54.33;;;30.57;;
17987;SDS011;9119;50.932;5.342;2022-07-24T05:27:20;54.03;;;31.87;;
17987;SDS011;9119;50.932;5.342;2022-07-24T05:29:46;54.57;;;32.30;;
17987;SDS011;9119;50.932;5.342;2022-07-24T05:32:12;50.80;;;31.27;;
17987;SDS011;9119;50.932;5.342;2022-07-24T05:34:38;65.70;;;32.60;;
17987;SDS011;9119;50.932;5.342;2022-07-24T05:37:04;58.00;;;32.23;;
17987;SDS011;9119;50.932;5.342;2022-07-24T05:39:29;57.00;;;33.23;;
17987;SDS011;9119;50.932;5.342;2022-07-24T05:41:55;53.10;;;31.30;;
17987;SDS011;9119;50.932;5.342;2022-07-24T05:44:21;54.03;;;30.87;;
17987;SDS011;9119;50.932;5.342;2022-07-24T05:46:46;58.57;;;32.33;;
17987;SDS011;9119;50.932;5.342;2022-07-24T05:49:12;54.30;;;30.07;;
17987;SDS011;9119;50.932;5.342;2022-07-24T05:51:38;57.00;;;32.40;;
17987;SDS011;9119;50.932;5.342;2022-07-24T05:54:04;58.70;;;33.10;;
17987;SDS011;9119;50.932;5.342;2022-07-24T05:56:30;55.50;;;32.03;;
17987;SDS011;9119;50.932;5.342;2022-07-24T05:58:55;54.47;;;32.97;;
17987;SDS011;9119;50.932;5.342;2022-07-24T06:01:21;54.57;;;30.83;;
17987;SDS011;9119;50.932;5.342;2022-07-24T06:03:47;49.57;;;30.93;;
17987;SDS011;9119;50.932;5.342;2022-07-24T06:06:13;52.50;;;31.57;;
17987;SDS011;9119;50.932;5.342;2022-07-24T06:08:39;57.63;;;30.93;;
17987;SDS011;9119;50.932;5.342;2022-07-24T06:11:05;48.67;;;30.73;;
17987;SDS011;9119;50.932;5.342;2022-07-24T06:13:30;49.77;;;29.80;;
17987;SDS011;9119;50.932;5.342;2022-07-24T06:15:56;51.33;;;30.20;;
17987;SDS011;9119;50.932;5.342;2022-07-24T06:18:22;51.07;;;31.03;;
17987;SDS011;9119;50.932;5.342;2022-07-24T06:20:48;52.63;;;30.53;;
17987;SDS011;9119;50.932;5.342;2022-07-24T06:23:13;53.57;;;30.20;;
17987;SDS011;9119;50.932;5.342;2022-07-24T06:25:39;47.90;;;29.83;;
17987;SDS011;9119;50.932;5.342;2022-07-24T06:28:04;44.93;;;25.97;;
17987;SDS011;9119;50.932;5.342;2022-07-24T06:30:30;46.13;;;28.27;;
17987;SDS011;9119;50.932;5.342;2022-07-24T06:32:57;42.73;;;26.07;;
17987;SDS011;9119;50.932;5.342;2022-07-24T06:35:24;45.63;;;25.93;;
17987;SDS011;9119;50.932;5.342;2022-07-24T06:37:52;47.90;;;25.63;;
17987;SDS011;9119;50.932;5.342;2022-07-24T06:40:18;49.07;;;26.37;;
17987;SDS011;9119;50.932;5.342;2022-07-24T06:42:45;39.33;;;22.73;;
17987;SDS011;9119;50.932;5.342;2022-07-24T06:45:12;49.90;;;24.80;;
17987;SDS011;9119;50.932;5.342;2022-07-24T06:47:39;40.83;;;23.90;;
17987;SDS011;9119;50.932;5.342;2022-07-24T06:50:05;41.40;;;24.97;;
17987;SDS011;9119;50.932;5.342;2022-07-24T06:52:32;37.57;;;22.83;;
17987;SDS011;9119;50.932;5.342;2022-07-24T06:54:57;41.67;;;23.43;;
17987;SDS011;9119;50.932;5.342;2022-07-24T06:57:23;39.27;;;22.00;;
17987;SDS011;9119;50.932;5.342;2022-07-24T06:59:51;71.77;;;27.80;;
17987;SDS011;9119;50.932;5.342;2022-07-24T07:02:17;44.20;;;22.77;;
17987;SDS011;9119;50.932;5.342;2022-07-24T07:04:44;34.83;;;21.00;;
17987;SDS011;9119;50.932;5.342;2022-07-24T07:07:09;37.07;;;21.47;;
17987;SDS011;9119;50.932;5.342;2022-07-24T07:09:35;34.10;;;20.87;;
17987;SDS011;9119;50.932;5.342;2022-07-24T07:12:01;34.70;;;20.70;;
17987;SDS011;9119;50.932;5.342;2022-07-24T07:14:31;37.33;;;21.27;;
17987;SDS011;9119;50.932;5.342;2022-07-24T07:16:57;37.07;;;19.67;;
17987;SDS011;9119;50.932;5.342;2022-07-24T07:19:22;36.17;;;19.97;;
17987;SDS011;9119;50.932;5.342;2022-07-24T07:21:48;39.13;;;19.10;;
17987;SDS011;9119;50.932;5.342;2022-07-24T07:24:14;40.27;;;19.03;;
17987;SDS011;9119;50.932;5.342;2022-07-24T07:26:39;33.07;;;19.07;;
17987;SDS011;9119;50.932;5.342;2022-07-24T07:29:05;28.00;;;18.43;;
17987;SDS011;9119;50.932;5.342;2022-07-24T07:31:31;35.37;;;19.90;;
17987;SDS011;9119;50.932;5.342;2022-07-24T07:33:56;38.17;;;20.67;;
17987;SDS011;9119;50.932;5.342;2022-07-24T07:36:23;35.63;;;20.37;;
17987;SDS011;9119;50.932;5.342;2022-07-24T07:38:49;33.20;;;19.60;;
17987;SDS011;9119;50.932;5.342;2022-07-24T07:41:14;31.30;;;19.83;;
17987;SDS011;9119;50.932;5.342;2022-07-24T07:43:40;29.87;;;17.73;;
17987;SDS011;9119;50.932;5.342;2022-07-24T07:46:06;32.67;;;20.17;;
17987;SDS011;9119;50.932;5.342;2022-07-24T07:48:32;36.23;;;20.17;;
17987;SDS011;9119;50.932;5.342;2022-07-24T07:50:58;32.77;;;18.60;;
17987;SDS011;9119;50.932;5.342;2022-07-24T07:53:24;37.37;;;19.93;;
17987;SDS011;9119;50.932;5.342;2022-07-24T07:55:49;32.90;;;19.67;;
17987;SDS011;9119;50.932;5.342;2022-07-24T07:58:16;32.43;;;19.87;;
17987;SDS011;9119;50.932;5.342;2022-07-24T08:00:42;36.80;;;19.87;;
17987;SDS011;9119;50.932;5.342;2022-07-24T08:03:08;39.93;;;20.37;;
17987;SDS011;9119;50.932;5.342;2022-07-24T08:05:34;34.50;;;18.93;;
17987;SDS011;9119;50.932;5.342;2022-07-24T08:07:59;32.77;;;18.73;;
17987;SDS011;9119;50.932;5.342;2022-07-24T08:10:25;33.90;;;18.60;;
17987;SDS011;9119;50.932;5.342;2022-07-24T08:12:51;30.80;;;16.93;;
17987;SDS011;9119;50.932;5.342;2022-07-24T08:15:17;32.93;;;17.53;;
17987;SDS011;9119;50.932;5.342;2022-07-24T08:17:44;31.37;;;17.83;;
17987;SDS011;9119;50.932;5.342;2022-07-24T08:20:09;29.37;;;18.50;;
17987;SDS011;9119;50.932;5.342;2022-07-24T08:22:35;30.33;;;17.33;;
17987;SDS011;9119;50.932;5.342;2022-07-24T08:25:01;27.53;;;15.77;;
17987;SDS011;9119;50.932;5.342;2022-07-24T08:27:27;22.17;;;13.43;;
17987;SDS011;9119;50.932;5.342;2022-07-24T08:29:53;21.40;;;12.80;;
17987;SDS011;9119;50.932;5.342;2022-07-24T08:32:19;21.97;;;13.27;;
17987;SDS011;9119;50.932;5.342;2022-07-24T08:34:45;19.27;;;11.50;;
17987;SDS011;9119;50.932;5.342;2022-07-24T08:37:11;20.27;;;11.03;;
17987;SDS011;9119;50.932;5.342;2022-07-24T08:39:37;17.13;;;11.03;;
17987;SDS011;9119;50.932;5.342;2022-07-24T08:42:03;19.83;;;11.30;;
17987;SDS011;9119;50.932;5.342;2022-07-24T08:44:28;17.47;;;10.73;;
17987;SDS011;9119;50.932;5.342;2022-07-24T08:46:54;19.73;;;11.57;;
17987;SDS011;9119;50.932;5.342;2022-07-24T08:49:23;16.23;;;10.47;;
17987;SDS011;9119;50.932;5.342;2022-07-24T08:51:57;16.67;;;10.30;;
17987;SDS011;9119;50.932;5.342;2022-07-24T08:54:27;27.97;;;9.97;;
17987;SDS011;9119;50.932;5.342;2022-07-24T08:56:53;16.20;;;9.37;;
17987;SDS011;9119;50.932;5.342;2022-07-24T08:59:19;16.17;;;9.43;;
17987;SDS011;9119;50.932;5.342;2022-07-24T09:01:47;17.00;;;8.67;;
17987;SDS011;9119;50.932;5.342;2022-07-24T09:07:06;13.17;;;7.30;;
17987;SDS011;9119;50.932;5.342;2022-07-24T09:09:37;10.47;;;6.43;;
17987;SDS011;9119;50.932;5.342;2022-07-24T09:12:10;10.37;;;5.87;;
17987;SDS011;9119;50.932;5.342;2022-07-24T09:14:41;9.20;;;6.10;;
17987;SDS011;9119;50.932;5.342;2022-07-24T09:17:20;10.13;;;5.97;;
17987;SDS011;9119;50.932;5.342;2022-07-24T09:20:01;13.47;;;5.60;;
17987;SDS011;9119;50.932;5.342;2022-07-24T09:22:40;9.47;;;5.87;;
17987;SDS011;9119;50.932;5.342;2022-07-24T09:27:53;12.37;;;5.43;;
17987;SDS011;9119;50.932;5.342;2022-07-24T09:30:29;10.93;;;5.43;;
17987;SDS011;9119;50.932;5.342;2022-07-24T09:38:04;7.65;;;4.80;;
17987;SDS011;9119;50.932;5.342;2022-07-24T09:40:39;7.68;;;4.72;;
17987;SDS011;9119;50.932;5.342;2022-07-24T09:50:58;9.13;;;5.03;;
17987;SDS011;9119;50.932;5.342;2022-07-24T09:53:30;6.37;;;4.47;;
17987;SDS011;9119;50.932;5.342;2022-07-24T09:56:02;9.80;;;4.60;;
17987;SDS011;9119;50.932;5.342;2022-07-24T09:58:32;5.30;;;3.60;;
17987;SDS011;9119;50.932;5.342;2022-07-24T10:01:01;8.43;;;3.70;;
17987;SDS011;9119;50.932;5.342;2022-07-24T10:03:29;9.30;;;3.63;;
17987;SDS011;9119;50.932;5.342;2022-07-24T10:06:01;7.90;;;3.17;;
17987;SDS011;9119;50.932;5.342;2022-07-24T10:08:29;6.73;;;3.77;;
17987;SDS011;9119;50.932;5.342;2022-07-24T10:10:57;6.83;;;3.40;;
17987;SDS011;9119;50.932;5.342;2022-07-24T10:13:23;5.23;;;3.17;;
17987;SDS011;9119;50.932;5.342;2022-07-24T10:21:10;6.97;;;2.97;;
17987;SDS011;9119;50.932;5.342;2022-07-24T10:29:14;4.90;;;2.58;;
17987;SDS011;9119;50.932;5.342;2022-07-24T10:31:46;5.72;;;2.38;;
17987;SDS011;9119;50.932;5.342;2022-07-24T10:45:43;3.75;;;2.00;;
17987;SDS011;9119;50.932;5.342;2022-07-24T10:58:57;4.40;;;2.38;;
17987;SDS011;9119;50.932;5.342;2022-07-24T11:01:37;4.00;;;2.60;;
17987;SDS011;9119;50.932;5.342;2022-07-24T11:06:49;4.20;;;2.25;;
17987;SDS011;9119;50.932;5.342;2022-07-24T11:09:26;3.90;;;2.20;;
17987;SDS011;9119;50.932;5.342;2022-07-24T11:20:05;7.65;;;2.30;;
17987;SDS011;9119;50.932;5.342;2022-07-24T11:25:10;35.80;;;4.35;;
17987;SDS011;9119;50.932;5.342;2022-07-24T11:27:46;6.38;;;2.22;;
17987;SDS011;9119;50.932;5.342;2022-07-24T11:30:24;3.75;;;2.10;;
17987;SDS011;9119;50.932;5.342;2022-07-24T11:32:50;4.03;;;2.08;;
17987;SDS011;9119;50.932;5.342;2022-07-24T11:35:16;3.60;;;1.83;;
17987;SDS011;9119;50.932;5.342;2022-07-24T11:37:53;4.95;;;2.72;;
17987;SDS011;9119;50.932;5.342;2022-07-24T11:40:20;2.97;;;2.35;;
17987;SDS011;9119;50.932;5.342;2022-07-24T11:42:53;3.33;;;1.90;;
17987;SDS011;9119;50.932;5.342;2022-07-24T11:45:21;2.42;;;2.10;;
17987;SDS011;9119;50.932;5.342;2022-07-24T11:47:46;3.08;;;2.08;;
17987;SDS011;9119;50.932;5.342;2022-07-24T11:50:12;8.07;;;1.70;;
17987;SDS011;9119;50.932;5.342;2022-07-24T11:52:38;4.80;;;2.30;;
17987;SDS011;9119;50.932;5.342;2022-07-24T11:55:09;4.18;;;2.00;;
17987;SDS011;9119;50.932;5.342;2022-07-24T11:57:40;2.53;;;1.70;;
17987;SDS011;9119;50.932;5.342;2022-07-24T12:00:09;2.80;;;2.05;;
17987;SDS011;9119;50.932;5.342;2022-07-24T12:02:48;2.45;;;1.85;;
17987;SDS011;9119;50.932;5.342;2022-07-24T12:05:25;2.85;;;1.92;;
17987;SDS011;9119;50.932;5.342;2022-07-24T12:08:03;3.30;;;1.88;;
17987;SDS011;9119;50.932;5.342;2022-07-24T12:10:40;2.08;;;1.70;;
17987;SDS011;9119;50.932;5.342;2022-07-24T12:13:05;2.10;;;1.90;;
17987;SDS011;9119;50.932;5.342;2022-07-24T12:15:31;2.90;;;1.70;;
17987;SDS011;9119;50.932;5.342;2022-07-24T12:17:58;2.10;;;1.90;;
17987;SDS011;9119;50.932;5.342;2022-07-24T12:20:47;4.20;;;2.00;;
17987;SDS011;9119;50.932;5.342;2022-07-24T12:23:16;2.65;;;1.58;;
17987;SDS011;9119;50.932;5.342;2022-07-24T12:25:44;3.60;;;2.03;;
17987;SDS011;9119;50.932;5.342;2022-07-24T12:28:14;2.03;;;1.83;;
17987;SDS011;9119;50.932;5.342;2022-07-24T12:30:44;3.92;;;1.95;;
17987;SDS011;9119;50.932;5.342;2022-07-24T12:38:26;3.20;;;1.80;;
17987;SDS011;9119;50.932;5.342;2022-07-24T12:41:06;4.70;;;2.08;;
17987;SDS011;9119;50.932;5.342;2022-07-24T12:43:49;4.72;;;1.92;;
17987;SDS011;9119;50.932;5.342;2022-07-24T12:46:15;2.70;;;1.60;;
17987;SDS011;9119;50.932;5.342;2022-07-24T12:51:49;2.47;;;1.90;;
17987;SDS011;9119;50.932;5.342;2022-07-24T12:57:10;1.98;;;1.73;;
17987;SDS011;9119;50.932;5.342;2022-07-24T12:59:38;5.20;;;1.80;;
17987;SDS011;9119;50.932;5.342;2022-07-24T13:02:14;2.60;;;2.35;;
17987;SDS011;9119;50.932;5.342;2022-07-24T13:04:45;5.68;;;2.00;;
17987;SDS011;9119;50.932;5.342;2022-07-24T13:07:17;3.28;;;2.00;;
17987;SDS011;9119;50.932;5.342;2022-07-24T13:09:45;2.00;;;1.70;;
17987;SDS011;9119;50.932;5.342;2022-07-24T13:12:12;3.58;;;1.90;;
17987;SDS011;9119;50.932;5.342;2022-07-24T13:14:38;3.15;;;1.90;;
17987;SDS011;9119;50.932;5.342;2022-07-24T13:17:05;6.82;;;2.13;;
17987;SDS011;9119;50.932;5.342;2022-07-24T13:19:35;3.25;;;1.90;;
17987;SDS011;9119;50.932;5.342;2022-07-24T13:22:02;4.88;;;2.38;;
17987;SDS011;9119;50.932;5.342;2022-07-24T13:24:28;3.08;;;1.98;;
17987;SDS011;9119;50.932;5.342;2022-07-24T13:26:54;3.28;;;2.08;;
17987;SDS011;9119;50.932;5.342;2022-07-24T13:29:20;2.70;;;2.05;;
17987;SDS011;9119;50.932;5.342;2022-07-24T13:31:47;3.60;;;2.05;;
17987;SDS011;9119;50.932;5.342;2022-07-24T13:34:12;3.35;;;2.45;;
17987;SDS011;9119;50.932;5.342;2022-07-24T13:36:38;4.10;;;2.15;;
17987;SDS011;9119;50.932;5.342;2022-07-24T13:39:04;2.88;;;2.17;;
17987;SDS011;9119;50.932;5.342;2022-07-24T13:41:31;3.05;;;2.22;;
17987;SDS011;9119;50.932;5.342;2022-07-24T13:43:57;5.55;;;2.17;;
17987;SDS011;9119;50.932;5.342;2022-07-24T13:46:23;5.45;;;2.33;;
17987;SDS011;9119;50.932;5.342;2022-07-24T13:48:49;2.70;;;2.30;;
17987;SDS011;9119;50.932;5.342;2022-07-24T13:51:16;5.03;;;2.38;;
17987;SDS011;9119;50.932;5.342;2022-07-24T13:53:42;5.35;;;2.35;;
17987;SDS011;9119;50.932;5.342;2022-07-24T13:56:08;3.35;;;2.63;;
17987;SDS011;9119;50.932;5.342;2022-07-24T13:58:36;3.72;;;2.97;;
17987;SDS011;9119;50.932;5.342;2022-07-24T14:01:05;5.80;;;2.17;;
17987;SDS011;9119;50.932;5.342;2022-07-24T14:03:32;3.08;;;2.70;;
17987;SDS011;9119;50.932;5.342;2022-07-24T14:05:58;3.95;;;2.70;;
17987;SDS011;9119;50.932;5.342;2022-07-24T14:08:24;5.28;;;2.83;;
17987;SDS011;9119;50.932;5.342;2022-07-24T14:10:51;4.95;;;2.70;;
17987;SDS011;9119;50.932;5.342;2022-07-24T14:13:17;4.15;;;2.80;;
17987;SDS011;9119;50.932;5.342;2022-07-24T14:15:42;2.95;;;2.63;;
17987;SDS011;9119;50.932;5.342;2022-07-24T14:18:08;6.35;;;3.10;;
17987;SDS011;9119;50.932;5.342;2022-07-24T14:20:34;3.63;;;2.65;;
17987;SDS011;9119;50.932;5.342;2022-07-24T14:22:59;3.90;;;2.88;;
17987;SDS011;9119;50.932;5.342;2022-07-24T14:25:25;3.70;;;2.65;;
17987;SDS011;9119;50.932;5.342;2022-07-24T14:27:51;5.72;;;3.42;;
17987;SDS011;9119;50.932;5.342;2022-07-24T14:30:16;5.00;;;2.80;;
17987;SDS011;9119;50.932;5.342;2022-07-24T14:32:42;4.35;;;3.10;;
17987;SDS011;9119;50.932;5.342;2022-07-24T14:35:08;4.13;;;3.17;;
17987;SDS011;9119;50.932;5.342;2022-07-24T14:37:35;4.55;;;3.25;;
17987;SDS011;9119;50.932;5.342;2022-07-24T14:40:06;5.03;;;3.22;;
17987;SDS011;9119;50.932;5.342;2022-07-24T14:42:34;4.97;;;3.22;;
17987;SDS011;9119;50.932;5.342;2022-07-24T14:45:00;4.72;;;2.90;;
17987;SDS011;9119;50.932;5.342;2022-07-24T14:47:26;5.70;;;2.92;;
17987;SDS011;9119;50.932;5.342;2022-07-24T14:49:52;4.90;;;3.33;;
17987;SDS011;9119;50.932;5.342;2022-07-24T14:52:18;7.05;;;3.40;;
17987;SDS011;9119;50.932;5.342;2022-07-24T14:54:44;5.43;;;3.28;;
17987;SDS011;9119;50.932;5.342;2022-07-24T14:57:10;4.80;;;2.90;;
17987;SDS011;9119;50.932;5.342;2022-07-24T14:59:37;4.47;;;3.00;;
17987;SDS011;9119;50.932;5.342;2022-07-24T15:02:02;6.28;;;3.53;;
17987;SDS011;9119;50.932;5.342;2022-07-24T15:04:28;7.47;;;2.90;;
17987;SDS011;9119;50.932;5.342;2022-07-24T15:06:54;7.00;;;3.30;;
17987;SDS011;9119;50.932;5.342;2022-07-24T15:09:19;7.95;;;3.33;;
17987;SDS011;9119;50.932;5.342;2022-07-24T15:11:45;5.13;;;3.10;;
17987;SDS011;9119;50.932;5.342;2022-07-24T15:14:11;3.35;;;3.05;;
17987;SDS011;9119;50.932;5.342;2022-07-24T15:16:38;4.68;;;3.00;;
17987;SDS011;9119;50.932;5.342;2022-07-24T15:19:04;4.13;;;3.00;;
17987;SDS011;9119;50.932;5.342;2022-07-24T15:21:30;3.75;;;3.10;;
17987;SDS011;9119;50.932;5.342;2022-07-24T15:23:55;5.80;;;3.45;;
17987;SDS011;9119;50.932;5.342;2022-07-24T15:26:21;7.28;;;3.75;;
17987;SDS011;9119;50.932;5.342;2022-07-24T15:28:47;6.25;;;4.07;;
17987;SDS011;9119;50.932;5.342;2022-07-24T15:31:12;4.18;;;3.50;;
17987;SDS011;9119;50.932;5.342;2022-07-24T15:33:42;7.15;;;4.10;;
17987;SDS011;9119;50.932;5.342;2022-07-24T15:36:08;6.28;;;4.00;;
17987;SDS011;9119;50.932;5.342;2022-07-24T15:38:35;4.07;;;3.67;;
17987;SDS011;9119;50.932;5.342;2022-07-24T15:41:01;5.40;;;3.78;;
17987;SDS011;9119;50.932;5.342;2022-07-24T15:43:26;4.82;;;3.50;;
17987;SDS011;9119;50.932;5.342;2022-07-24T15:45:52;4.53;;;3.67;;
17987;SDS011;9119;50.932;5.342;2022-07-24T15:48:18;10.90;;;4.00;;
17987;SDS011;9119;50.932;5.342;2022-07-24T15:50:43;6.47;;;3.80;;
17987;SDS011;9119;50.932;5.342;2022-07-24T15:53:09;5.10;;;4.28;;
17987;SDS011;9119;50.932;5.342;2022-07-24T15:55:35;4.97;;;3.92;;
17987;SDS011;9119;50.932;5.342;2022-07-24T15:58:01;6.50;;;3.80;;
17987;SDS011;9119;50.932;5.342;2022-07-24T16:00:27;4.63;;;3.70;;